Seabulk Challenge — KNJL — position and weather

sailwx.info

Track history (hours):
 
Tides and Currents Weather Stations Pressure Air Temp Water Temp Dewpoint Dewpoint Depression Visibility Wind Speed Wind Dir Waves Ship Positions

Seabulk Challenge

Owner: Seabulk Tankers, Inc., Fort Lauderdale, FL. More information available from US FCC via Universal Licensing System and Coast Guard Vessel Documentation Center.

Last reported at 2016-Feb-10 23:34 UTC. Time now 2016-Feb-12 09:54 UTC.
Position N 27°05' W 079°52'.

Length 192 m; draft 7.3 m.

Type: Tanker. MMSI: 303104000.

Date/timePositionNaut miles runAvg speedWind from/ knotsBaromVisibWave heightAir tempDewpointWater temp
2016-Feb-10 23:34N 27°05' W 079°52'1515.1
2016-Feb-10 22:33N 26°50' W 079°49'1715.7
2016-Feb-10 21:30N 26°33' W 079°52'1616.8
2016-Feb-10 20:34N 26°18' W 079°55'1414.1
2016-Feb-10 19:33N 26°05' W 080°02'5 4.6
2016-Feb-10 18:30N 26°06' W 080°07'0 0.0
2016-Feb-10 17:33N 26°06' W 080°07'0 0.0
2016-Feb-10 16:30N 26°06' W 080°07'0 0.0
2016-Feb-10 15:33N 26°06' W 080°07'0 0.0
2016-Feb-10 14:33N 26°06' W 080°07'0 0.0
2016-Feb-10 13:33N 26°06' W 080°07'0 0.0
2016-Feb-10 12:33N 26°06' W 080°07'0 0.0
2016-Feb-10 11:33N 26°06' W 080°07'0 0.0
2016-Feb-10 10:33N 26°06' W 080°07'0 0.0
2016-Feb-10 09:24N 26°06' W 080°07'0 0.0
2016-Feb-10 08:24N 26°06' W 080°07'0 0.0
2016-Feb-10 07:27N 26°06' W 080°07'0 0.0
2016-Feb-10 06:27N 26°06' W 080°07'0 0.0
2016-Feb-10 05:27N 26°06' W 080°07'0 0.0
2016-Feb-10 04:30N 26°06' W 080°07'0 0.0
2016-Feb-10 03:30N 26°06' W 080°07'0 0.0
2016-Feb-10 02:30N 26°06' W 080°07'0 0.0
2016-Feb-10 01:33N 26°06' W 080°07'0 0.0
2016-Feb-10 00:33N 26°06' W 080°07'0 0.0
2016-Feb-09 23:33N 26°06' W 080°07'0 0.0
2016-Feb-09 22:33N 26°06' W 080°07'0 0.0
2016-Feb-09 21:33N 26°06' W 080°07'0 0.0
2016-Feb-09 20:33N 26°06' W 080°07'0 0.0
2016-Feb-09 19:33N 26°06' W 080°07'0 0.0
2016-Feb-09 18:24N 26°06' W 080°07'1 1.1
2016-Feb-09 17:33N 26°06' W 080°06'8 7.8
2016-Feb-09 16:33N 26°08' W 079°58'8 8.2
2016-Feb-09 15:33N 26°00' W 079°58'9 9.3
2016-Feb-09 14:33N 25°51' W 079°56'1312.9
2016-Feb-09 13:33N 25°38' W 079°55'1414.4
2016-Feb-09 12:33N 25°24' W 079°57'  
2016-Feb-07 01:34N 29°40' W 093°50'10 8.1
2016-Feb-07 00:18N 29°48' W 093°57'11 5.2
2016-Feb-06 22:18N 29°57' W 093°52'4 5.5
2016-Feb-06 21:30N 29°59' W 093°56'5 5.5
2016-Feb-06 20:31N 30°01' W 094°02'  
2016-Feb-04 07:18N 30°02' W 094°02'1 1.9
2016-Feb-04 06:33N 30°01' W 094°01'7 6.5
2016-Feb-04 05:33N 29°59' W 093°54'4 4.2
2016-Feb-04 04:33N 29°55' W 093°53'7 6.7
2016-Feb-04 03:33N 29°49' W 093°58'9 9.1
2016-Feb-04 02:33N 29°42' W 093°51'9 8.6
2016-Feb-04 01:33N 29°35' W 093°46'1 0.1
2016-Feb-03 14:10N 29°35' W 093°45'0 0.0
2016-Feb-03 13:22N 29°35' W 093°45'0 0.0
2016-Feb-03 12:31N 29°35' W 093°45'0 0.0
2016-Feb-03 10:16N 29°35' W 093°45'0 0.0
2016-Feb-03 09:31N 29°35' W 093°45'0 0.0
2016-Feb-03 08:28N 29°35' W 093°45'0 0.0
2016-Feb-03 07:31N 29°35' W 093°45'0 0.0
2016-Feb-03 06:31N 29°35' W 093°45'0 0.0
2016-Feb-03 05:28N 29°35' W 093°45'0 0.0
2016-Feb-03 04:28N 29°35' W 093°45'0 0.0
2016-Feb-03 03:31N 29°35' W 093°45'0 0.0
2016-Feb-03 02:28N 29°35' W 093°45'0 0.0
2016-Feb-03 01:31N 29°35' W 093°45'0 0.0
2016-Feb-03 00:31N 29°35' W 093°45'0 0.0
2016-Feb-02 23:31N 29°35' W 093°45'0 0.0
2016-Feb-02 22:31N 29°35' W 093°45'0 0.0
2016-Feb-02 20:25N 29°35' W 093°45'0 0.0
2016-Feb-02 06:28N 29°35' W 093°45'  
Track history (hours):
 
Tides and Currents Weather Stations Pressure Air Temp Water Temp Dewpoint Dewpoint Depression Visibility Wind Speed Wind Dir Waves Ship Positions

Seabulk Challenge

Owner: Seabulk Tankers, Inc., Fort Lauderdale, FL. More information available from US FCC via Universal Licensing System and Coast Guard Vessel Documentation Center.

Last reported at 2016-Feb-10 23:34 UTC. Time now 2016-Feb-12 09:54 UTC.
Position N 27°05' W 079°52'.

Length 192 m; draft 7.3 m.

Type: Tanker. MMSI: 303104000.

Date/timePositionNaut miles runAvg speedWind from/ knotsBaromVisibWave heightAir tempDewpointWater temp
2016-Feb-10 23:34N 27°05' W 079°52'1515.1
2016-Feb-10 22:33N 26°50' W 079°49'1715.7
2016-Feb-10 21:30N 26°33' W 079°52'1616.8
2016-Feb-10 20:34N 26°18' W 079°55'1414.1
2016-Feb-10 19:33N 26°05' W 080°02'5 4.6
2016-Feb-10 18:30N 26°06' W 080°07'0 0.0
2016-Feb-10 17:33N 26°06' W 080°07'0 0.0
2016-Feb-10 16:30N 26°06' W 080°07'0 0.0
2016-Feb-10 15:33N 26°06' W 080°07'0 0.0
2016-Feb-10 14:33N 26°06' W 080°07'0 0.0
2016-Feb-10 13:33N 26°06' W 080°07'0 0.0
2016-Feb-10 12:33N 26°06' W 080°07'0 0.0
2016-Feb-10 11:33N 26°06' W 080°07'0 0.0
2016-Feb-10 10:33N 26°06' W 080°07'0 0.0
2016-Feb-10 09:24N 26°06' W 080°07'0 0.0
2016-Feb-10 08:24N 26°06' W 080°07'0 0.0
2016-Feb-10 07:27N 26°06' W 080°07'0 0.0
2016-Feb-10 06:27N 26°06' W 080°07'0 0.0
2016-Feb-10 05:27N 26°06' W 080°07'0 0.0
2016-Feb-10 04:30N 26°06' W 080°07'0 0.0
2016-Feb-10 03:30N 26°06' W 080°07'0 0.0
2016-Feb-10 02:30N 26°06' W 080°07'0 0.0
2016-Feb-10 01:33N 26°06' W 080°07'0 0.0
2016-Feb-10 00:33N 26°06' W 080°07'0 0.0
2016-Feb-09 23:33N 26°06' W 080°07'0 0.0
2016-Feb-09 22:33N 26°06' W 080°07'0 0.0
2016-Feb-09 21:33N 26°06' W 080°07'0 0.0
2016-Feb-09 20:33N 26°06' W 080°07'0 0.0
2016-Feb-09 19:33N 26°06' W 080°07'0 0.0
2016-Feb-09 18:24N 26°06' W 080°07'1 1.1
2016-Feb-09 17:33N 26°06' W 080°06'8 7.8
2016-Feb-09 16:33N 26°08' W 079°58'8 8.2
2016-Feb-09 15:33N 26°00' W 079°58'9 9.3
2016-Feb-09 14:33N 25°51' W 079°56'1312.9
2016-Feb-09 13:33N 25°38' W 079°55'1414.4
2016-Feb-09 12:33N 25°24' W 079°57'  
2016-Feb-07 01:34N 29°40' W 093°50'10 8.1
2016-Feb-07 00:18N 29°48' W 093°57'11 5.2
2016-Feb-06 22:18N 29°57' W 093°52'4 5.5
2016-Feb-06 21:30N 29°59' W 093°56'5 5.5
2016-Feb-06 20:31N 30°01' W 094°02'  
2016-Feb-04 07:18N 30°02' W 094°02'1 1.9
2016-Feb-04 06:33N 30°01' W 094°01'7 6.5
2016-Feb-04 05:33N 29°59' W 093°54'4 4.2
2016-Feb-04 04:33N 29°55' W 093°53'7 6.7
2016-Feb-04 03:33N 29°49' W 093°58'9 9.1
2016-Feb-04 02:33N 29°42' W 093°51'9 8.6
2016-Feb-04 01:33N 29°35' W 093°46'1 0.1
2016-Feb-03 14:10N 29°35' W 093°45'0 0.0
2016-Feb-03 13:22N 29°35' W 093°45'0 0.0
2016-Feb-03 12:31N 29°35' W 093°45'0 0.0
2016-Feb-03 10:16N 29°35' W 093°45'0 0.0
2016-Feb-03 09:31N 29°35' W 093°45'0 0.0
2016-Feb-03 08:28N 29°35' W 093°45'0 0.0
2016-Feb-03 07:31N 29°35' W 093°45'0 0.0
2016-Feb-03 06:31N 29°35' W 093°45'0 0.0
2016-Feb-03 05:28N 29°35' W 093°45'0 0.0
2016-Feb-03 04:28N 29°35' W 093°45'0 0.0
2016-Feb-03 03:31N 29°35' W 093°45'0 0.0
2016-Feb-03 02:28N 29°35' W 093°45'0 0.0
2016-Feb-03 01:31N 29°35' W 093°45'0 0.0
2016-Feb-03 00:31N 29°35' W 093°45'0 0.0
2016-Feb-02 23:31N 29°35' W 093°45'0 0.0
2016-Feb-02 22:31N 29°35' W 093°45'0 0.0
2016-Feb-02 20:25N 29°35' W 093°45'0 0.0
2016-Feb-02 06:28N 29°35' W 093°45'  

Dump ship's entire track history